Rock Creek, Canada
Current Conditions -  °F | °C
As of 11:00 AM on Tuesday 21 Oct 2014 (Local Time) from CYYF Reporting Station
Broken Clouds Broken Clouds  
Wind Chill: 57°   Ceiling: 14000
Heat Index: 57°   Visibility: 15mi
Dew Point: 48°   Wind: 18mph
Humidity: 72%   Direction: 180°S
Pressure: 29.84"   Gusts: 25mph
Location:  49.07°N, 118.98°W
Report Text: CYYF 211800Z 18016G22KT 15SM SCT035 BKN140 BKN230 14/09 A2984 RMK CU3AC2CI1 SLP106 DENSITY ALT 1400FT
Loading
Personal Weather Stations






























Interactive Weather Map
Tropical Storm Tracking
New forecast layout! Learn more

10-Day Weather Forecast

Advertisements
Track Severe Weather on mobile